sensor_id;sensor_type;location;lat;lon;timestamp;P1;durP1;ratioP1;P2;durP2;ratioP2
69319;SDS011;56467;53.502;49.248;2022-08-03T00:01:36;15.70;;;8.98;;
69319;SDS011;56467;53.502;49.248;2022-08-03T00:04:04;15.57;;;9.40;;
69319;SDS011;56467;53.502;49.248;2022-08-03T00:06:31;18.80;;;10.18;;
69319;SDS011;56467;53.502;49.248;2022-08-03T00:08:57;18.48;;;9.93;;
69319;SDS011;56467;53.502;49.248;2022-08-03T00:11:23;19.63;;;9.10;;
69319;SDS011;56467;53.502;49.248;2022-08-03T00:13:49;18.00;;;9.70;;
69319;SDS011;56467;53.502;49.248;2022-08-03T00:16:15;19.33;;;10.48;;
69319;SDS011;56467;53.502;49.248;2022-08-03T00:18:41;16.45;;;9.93;;
69319;SDS011;56467;53.502;49.248;2022-08-03T00:21:07;18.20;;;10.02;;
69319;SDS011;56467;53.502;49.248;2022-08-03T00:23:36;18.83;;;10.07;;
69319;SDS011;56467;53.502;49.248;2022-08-03T00:26:02;16.77;;;9.00;;
69319;SDS011;56467;53.502;49.248;2022-08-03T00:28:28;17.15;;;9.07;;
69319;SDS011;56467;53.502;49.248;2022-08-03T00:30:54;17.90;;;10.13;;
69319;SDS011;56467;53.502;49.248;2022-08-03T00:33:20;16.45;;;9.43;;
69319;SDS011;56467;53.502;49.248;2022-08-03T00:35:46;14.68;;;8.70;;
69319;SDS011;56467;53.502;49.248;2022-08-03T00:38:12;15.80;;;8.98;;
69319;SDS011;56467;53.502;49.248;2022-08-03T00:40:39;18.17;;;9.15;;
69319;SDS011;56467;53.502;49.248;2022-08-03T00:43:05;16.35;;;9.23;;
69319;SDS011;56467;53.502;49.248;2022-08-03T00:45:33;15.35;;;8.88;;
69319;SDS011;56467;53.502;49.248;2022-08-03T00:48:09;17.20;;;9.18;;
69319;SDS011;56467;53.502;49.248;2022-08-03T00:50:40;17.40;;;9.20;;
69319;SDS011;56467;53.502;49.248;2022-08-03T00:53:08;14.10;;;8.18;;
69319;SDS011;56467;53.502;49.248;2022-08-03T00:55:38;14.95;;;8.63;;
69319;SDS011;56467;53.502;49.248;2022-08-03T00:58:06;14.52;;;8.02;;
69319;SDS011;56467;53.502;49.248;2022-08-03T01:00:32;15.18;;;8.38;;
69319;SDS011;56467;53.502;49.248;2022-08-03T01:03:00;11.88;;;8.15;;
69319;SDS011;56467;53.502;49.248;2022-08-03T01:05:27;13.57;;;8.30;;
69319;SDS011;56467;53.502;49.248;2022-08-03T01:11:05;13.95;;;8.23;;
69319;SDS011;56467;53.502;49.248;2022-08-03T01:13:56;14.63;;;7.90;;
69319;SDS011;56467;53.502;49.248;2022-08-03T01:16:56;12.52;;;7.78;;
69319;SDS011;56467;53.502;49.248;2022-08-03T01:19:48;12.98;;;7.82;;
69319;SDS011;56467;53.502;49.248;2022-08-03T01:30:42;13.88;;;7.43;;
69319;SDS011;56467;53.502;49.248;2022-08-03T01:33:21;13.13;;;7.68;;
69319;SDS011;56467;53.502;49.248;2022-08-03T01:35:52;13.73;;;7.80;;
69319;SDS011;56467;53.502;49.248;2022-08-03T01:38:25;12.07;;;7.40;;
69319;SDS011;56467;53.502;49.248;2022-08-03T01:40:53;12.98;;;7.72;;
69319;SDS011;56467;53.502;49.248;2022-08-03T01:43:22;12.40;;;7.10;;
69319;SDS011;56467;53.502;49.248;2022-08-03T01:45:52;11.70;;;7.50;;
69319;SDS011;56467;53.502;49.248;2022-08-03T01:48:20;12.50;;;7.75;;
69319;SDS011;56467;53.502;49.248;2022-08-03T01:50:46;12.30;;;7.57;;
69319;SDS011;56467;53.502;49.248;2022-08-03T01:53:13;12.07;;;7.30;;
69319;SDS011;56467;53.502;49.248;2022-08-03T01:55:42;11.20;;;6.93;;
69319;SDS011;56467;53.502;49.248;2022-08-03T01:58:10;12.07;;;7.00;;
69319;SDS011;56467;53.502;49.248;2022-08-03T02:00:39;12.00;;;7.32;;
69319;SDS011;56467;53.502;49.248;2022-08-03T02:03:06;11.10;;;7.03;;
69319;SDS011;56467;53.502;49.248;2022-08-03T02:05:36;14.30;;;8.10;;
69319;SDS011;56467;53.502;49.248;2022-08-03T02:08:04;10.77;;;7.28;;
69319;SDS011;56467;53.502;49.248;2022-08-03T02:10:32;10.88;;;6.80;;
69319;SDS011;56467;53.502;49.248;2022-08-03T02:12:59;11.18;;;7.13;;
69319;SDS011;56467;53.502;49.248;2022-08-03T02:15:26;12.15;;;6.85;;
69319;SDS011;56467;53.502;49.248;2022-08-03T02:17:54;11.43;;;6.80;;
69319;SDS011;56467;53.502;49.248;2022-08-03T02:20:21;11.65;;;6.80;;
69319;SDS011;56467;53.502;49.248;2022-08-03T02:22:49;13.07;;;7.20;;
69319;SDS011;56467;53.502;49.248;2022-08-03T02:25:15;13.18;;;7.47;;
69319;SDS011;56467;53.502;49.248;2022-08-03T02:30:36;12.40;;;7.05;;
69319;SDS011;56467;53.502;49.248;2022-08-03T02:33:09;13.20;;;6.88;;
69319;SDS011;56467;53.502;49.248;2022-08-03T02:35:41;10.93;;;6.60;;
69319;SDS011;56467;53.502;49.248;2022-08-03T02:38:09;11.07;;;6.90;;
69319;SDS011;56467;53.502;49.248;2022-08-03T02:40:36;11.90;;;7.15;;
69319;SDS011;56467;53.502;49.248;2022-08-03T02:43:06;9.77;;;6.32;;
69319;SDS011;56467;53.502;49.248;2022-08-03T02:45:35;9.90;;;6.20;;
69319;SDS011;56467;53.502;49.248;2022-08-03T02:48:08;11.80;;;6.97;;
69319;SDS011;56467;53.502;49.248;2022-08-03T02:50:35;10.85;;;6.55;;
69319;SDS011;56467;53.502;49.248;2022-08-03T02:53:02;11.77;;;6.20;;
69319;SDS011;56467;53.502;49.248;2022-08-03T02:55:29;11.27;;;6.93;;
69319;SDS011;56467;53.502;49.248;2022-08-03T02:57:58;11.95;;;6.82;;
69319;SDS011;56467;53.502;49.248;2022-08-03T03:00:26;10.85;;;6.35;;
69319;SDS011;56467;53.502;49.248;2022-08-03T03:02:56;13.75;;;7.10;;
69319;SDS011;56467;53.502;49.248;2022-08-03T03:05:22;11.15;;;6.78;;
69319;SDS011;56467;53.502;49.248;2022-08-03T03:07:49;9.90;;;6.40;;
69319;SDS011;56467;53.502;49.248;2022-08-03T03:10:15;11.98;;;6.20;;
69319;SDS011;56467;53.502;49.248;2022-08-03T03:12:41;11.85;;;6.85;;
69319;SDS011;56467;53.502;49.248;2022-08-03T03:15:09;10.75;;;6.25;;
69319;SDS011;56467;53.502;49.248;2022-08-03T03:17:35;13.20;;;6.68;;
69319;SDS011;56467;53.502;49.248;2022-08-03T03:20:04;11.48;;;6.18;;
69319;SDS011;56467;53.502;49.248;2022-08-03T03:22:31;11.70;;;6.32;;
69319;SDS011;56467;53.502;49.248;2022-08-03T03:24:58;10.05;;;5.90;;
69319;SDS011;56467;53.502;49.248;2022-08-03T03:27:24;11.43;;;6.40;;
69319;SDS011;56467;53.502;49.248;2022-08-03T03:29:50;12.20;;;6.50;;
69319;SDS011;56467;53.502;49.248;2022-08-03T03:32:16;9.93;;;6.10;;
69319;SDS011;56467;53.502;49.248;2022-08-03T03:34:42;10.52;;;6.47;;
69319;SDS011;56467;53.502;49.248;2022-08-03T03:37:12;11.93;;;6.45;;
69319;SDS011;56467;53.502;49.248;2022-08-03T03:39:38;10.43;;;6.03;;
69319;SDS011;56467;53.502;49.248;2022-08-03T03:42:04;9.77;;;6.10;;
69319;SDS011;56467;53.502;49.248;2022-08-03T03:44:30;11.32;;;6.45;;
69319;SDS011;56467;53.502;49.248;2022-08-03T03:46:58;11.35;;;6.53;;
69319;SDS011;56467;53.502;49.248;2022-08-03T03:49:25;9.63;;;6.13;;
69319;SDS011;56467;53.502;49.248;2022-08-03T03:51:51;11.10;;;6.05;;
69319;SDS011;56467;53.502;49.248;2022-08-03T03:54:19;11.75;;;6.18;;
69319;SDS011;56467;53.502;49.248;2022-08-03T03:56:45;10.98;;;6.05;;
69319;SDS011;56467;53.502;49.248;2022-08-03T03:59:11;10.05;;;5.82;;
69319;SDS011;56467;53.502;49.248;2022-08-03T04:01:37;9.88;;;5.65;;
69319;SDS011;56467;53.502;49.248;2022-08-03T04:04:03;10.15;;;5.75;;
69319;SDS011;56467;53.502;49.248;2022-08-03T04:06:47;11.23;;;5.88;;
69319;SDS011;56467;53.502;49.248;2022-08-03T04:09:33;9.48;;;5.65;;
69319;SDS011;56467;53.502;49.248;2022-08-03T04:12:18;9.52;;;5.65;;
69319;SDS011;56467;53.502;49.248;2022-08-03T04:14:47;10.20;;;5.97;;
69319;SDS011;56467;53.502;49.248;2022-08-03T04:17:15;9.10;;;5.80;;
69319;SDS011;56467;53.502;49.248;2022-08-03T04:19:43;9.00;;;6.07;;
69319;SDS011;56467;53.502;49.248;2022-08-03T04:22:16;9.93;;;6.10;;
69319;SDS011;56467;53.502;49.248;2022-08-03T04:24:46;10.90;;;5.70;;
69319;SDS011;56467;53.502;49.248;2022-08-03T04:27:17;8.82;;;5.45;;
69319;SDS011;56467;53.502;49.248;2022-08-03T04:29:48;8.68;;;5.60;;
69319;SDS011;56467;53.502;49.248;2022-08-03T04:32:15;10.00;;;5.72;;
69319;SDS011;56467;53.502;49.248;2022-08-03T04:34:42;9.43;;;5.45;;
69319;SDS011;56467;53.502;49.248;2022-08-03T04:37:11;9.82;;;5.72;;
69319;SDS011;56467;53.502;49.248;2022-08-03T04:39:42;9.10;;;5.38;;
69319;SDS011;56467;53.502;49.248;2022-08-03T04:42:12;9.90;;;5.80;;
69319;SDS011;56467;53.502;49.248;2022-08-03T04:44:39;8.77;;;5.47;;
69319;SDS011;56467;53.502;49.248;2022-08-03T04:47:06;10.00;;;5.30;;
69319;SDS011;56467;53.502;49.248;2022-08-03T04:49:33;9.27;;;5.43;;
69319;SDS011;56467;53.502;49.248;2022-08-03T04:52:01;11.88;;;5.88;;
69319;SDS011;56467;53.502;49.248;2022-08-03T04:54:28;9.38;;;5.57;;
69319;SDS011;56467;53.502;49.248;2022-08-03T04:56:53;8.05;;;5.18;;
69319;SDS011;56467;53.502;49.248;2022-08-03T04:59:19;9.65;;;5.45;;
69319;SDS011;56467;53.502;49.248;2022-08-03T05:01:45;8.55;;;5.53;;
69319;SDS011;56467;53.502;49.248;2022-08-03T05:04:10;8.93;;;5.43;;
69319;SDS011;56467;53.502;49.248;2022-08-03T05:06:36;8.02;;;5.10;;
69319;SDS011;56467;53.502;49.248;2022-08-03T05:09:02;10.63;;;5.78;;
69319;SDS011;56467;53.502;49.248;2022-08-03T05:11:31;8.52;;;5.43;;
69319;SDS011;56467;53.502;49.248;2022-08-03T05:13:57;10.77;;;5.53;;
69319;SDS011;56467;53.502;49.248;2022-08-03T05:16:25;8.35;;;5.10;;
69319;SDS011;56467;53.502;49.248;2022-08-03T05:18:51;8.63;;;5.18;;
69319;SDS011;56467;53.502;49.248;2022-08-03T05:21:16;8.40;;;5.30;;
69319;SDS011;56467;53.502;49.248;2022-08-03T05:23:42;10.00;;;5.45;;
69319;SDS011;56467;53.502;49.248;2022-08-03T05:26:08;9.27;;;5.00;;
69319;SDS011;56467;53.502;49.248;2022-08-03T05:28:36;7.72;;;5.05;;
69319;SDS011;56467;53.502;49.248;2022-08-03T05:31:02;9.50;;;5.47;;
69319;SDS011;56467;53.502;49.248;2022-08-03T05:33:28;8.05;;;4.90;;
69319;SDS011;56467;53.502;49.248;2022-08-03T05:35:53;7.53;;;5.07;;
69319;SDS011;56467;53.502;49.248;2022-08-03T05:38:19;7.53;;;4.95;;
69319;SDS011;56467;53.502;49.248;2022-08-03T05:40:45;7.78;;;5.03;;
69319;SDS011;56467;53.502;49.248;2022-08-03T05:43:10;7.38;;;4.60;;
69319;SDS011;56467;53.502;49.248;2022-08-03T05:45:36;9.57;;;5.07;;
69319;SDS011;56467;53.502;49.248;2022-08-03T05:48:03;8.63;;;4.75;;
69319;SDS011;56467;53.502;49.248;2022-08-03T05:50:29;8.73;;;4.95;;
69319;SDS011;56467;53.502;49.248;2022-08-03T05:52:55;8.57;;;5.32;;
69319;SDS011;56467;53.502;49.248;2022-08-03T05:55:24;8.35;;;5.50;;
69319;SDS011;56467;53.502;49.248;2022-08-03T05:57:50;8.82;;;5.03;;
69319;SDS011;56467;53.502;49.248;2022-08-03T06:00:15;8.43;;;5.15;;
69319;SDS011;56467;53.502;49.248;2022-08-03T06:02:41;6.90;;;4.68;;
69319;SDS011;56467;53.502;49.248;2022-08-03T06:05:07;7.60;;;4.63;;
69319;SDS011;56467;53.502;49.248;2022-08-03T06:07:33;7.07;;;4.25;;
69319;SDS011;56467;53.502;49.248;2022-08-03T06:09:59;6.53;;;4.32;;
69319;SDS011;56467;53.502;49.248;2022-08-03T06:12:28;6.97;;;4.70;;
69319;SDS011;56467;53.502;49.248;2022-08-03T06:14:54;7.78;;;4.63;;
69319;SDS011;56467;53.502;49.248;2022-08-03T06:17:20;6.53;;;4.32;;
69319;SDS011;56467;53.502;49.248;2022-08-03T06:19:46;7.00;;;4.70;;
69319;SDS011;56467;53.502;49.248;2022-08-03T06:22:12;6.68;;;4.47;;
69319;SDS011;56467;53.502;49.248;2022-08-03T06:24:38;7.43;;;4.40;;
69319;SDS011;56467;53.502;49.248;2022-08-03T06:27:03;6.72;;;4.60;;
69319;SDS011;56467;53.502;49.248;2022-08-03T06:29:29;7.43;;;4.60;;
69319;SDS011;56467;53.502;49.248;2022-08-03T06:31:55;6.82;;;4.20;;
69319;SDS011;56467;53.502;49.248;2022-08-03T06:34:21;5.90;;;4.00;;
69319;SDS011;56467;53.502;49.248;2022-08-03T06:36:46;6.07;;;4.18;;
69319;SDS011;56467;53.502;49.248;2022-08-03T06:39:15;7.13;;;4.15;;
69319;SDS011;56467;53.502;49.248;2022-08-03T06:41:41;6.93;;;4.32;;
69319;SDS011;56467;53.502;49.248;2022-08-03T06:44:11;6.10;;;4.32;;
69319;SDS011;56467;53.502;49.248;2022-08-03T06:46:37;7.30;;;4.30;;
69319;SDS011;56467;53.502;49.248;2022-08-03T06:49:03;6.40;;;4.13;;
69319;SDS011;56467;53.502;49.248;2022-08-03T06:51:29;6.35;;;4.22;;
69319;SDS011;56467;53.502;49.248;2022-08-03T06:53:55;7.10;;;4.30;;
69319;SDS011;56467;53.502;49.248;2022-08-03T06:56:20;6.55;;;4.40;;
69319;SDS011;56467;53.502;49.248;2022-08-03T06:58:46;5.63;;;3.80;;
69319;SDS011;56467;53.502;49.248;2022-08-03T07:01:12;6.97;;;4.20;;
69319;SDS011;56467;53.502;49.248;2022-08-03T07:03:38;7.00;;;4.70;;
69319;SDS011;56467;53.502;49.248;2022-08-03T07:06:05;6.35;;;4.07;;
69319;SDS011;56467;53.502;49.248;2022-08-03T07:08:30;6.00;;;3.92;;
69319;SDS011;56467;53.502;49.248;2022-08-03T07:10:56;7.38;;;4.38;;
69319;SDS011;56467;53.502;49.248;2022-08-03T07:13:22;6.40;;;4.22;;
69319;SDS011;56467;53.502;49.248;2022-08-03T07:15:48;5.97;;;4.32;;
69319;SDS011;56467;53.502;49.248;2022-08-03T07:18:14;5.88;;;3.95;;
69319;SDS011;56467;53.502;49.248;2022-08-03T07:20:39;6.03;;;3.75;;
69319;SDS011;56467;53.502;49.248;2022-08-03T07:23:05;6.10;;;3.65;;
69319;SDS011;56467;53.502;49.248;2022-08-03T07:25:31;5.50;;;3.70;;
69319;SDS011;56467;53.502;49.248;2022-08-03T07:27:56;5.97;;;3.80;;
69319;SDS011;56467;53.502;49.248;2022-08-03T07:30:22;5.35;;;3.45;;
69319;SDS011;56467;53.502;49.248;2022-08-03T07:32:48;5.75;;;3.75;;
69319;SDS011;56467;53.502;49.248;2022-08-03T07:35:13;7.00;;;4.00;;
69319;SDS011;56467;53.502;49.248;2022-08-03T07:37:39;5.53;;;3.70;;
69319;SDS011;56467;53.502;49.248;2022-08-03T07:40:05;5.38;;;3.60;;
69319;SDS011;56467;53.502;49.248;2022-08-03T07:42:31;6.15;;;3.72;;
69319;SDS011;56467;53.502;49.248;2022-08-03T07:44:57;5.60;;;3.67;;
69319;SDS011;56467;53.502;49.248;2022-08-03T07:47:25;5.10;;;3.63;;
69319;SDS011;56467;53.502;49.248;2022-08-03T07:49:52;5.63;;;3.70;;
69319;SDS011;56467;53.502;49.248;2022-08-03T07:52:19;5.95;;;3.47;;
69319;SDS011;56467;53.502;49.248;2022-08-03T07:55:04;6.20;;;3.55;;
69319;SDS011;56467;53.502;49.248;2022-08-03T07:57:31;6.18;;;3.50;;
69319;SDS011;56467;53.502;49.248;2022-08-03T07:59:57;4.93;;;3.17;;
69319;SDS011;56467;53.502;49.248;2022-08-03T08:02:23;3.88;;;3.00;;
69319;SDS011;56467;53.502;49.248;2022-08-03T08:04:48;5.18;;;3.58;;
69319;SDS011;56467;53.502;49.248;2022-08-03T08:07:14;6.32;;;3.83;;
69319;SDS011;56467;53.502;49.248;2022-08-03T08:09:40;4.75;;;3.30;;
69319;SDS011;56467;53.502;49.248;2022-08-03T08:12:06;4.78;;;3.20;;
69319;SDS011;56467;53.502;49.248;2022-08-03T08:14:33;5.85;;;3.55;;
69319;SDS011;56467;53.502;49.248;2022-08-03T08:16:59;5.30;;;3.60;;
69319;SDS011;56467;53.502;49.248;2022-08-03T08:19:25;5.15;;;3.17;;
69319;SDS011;56467;53.502;49.248;2022-08-03T08:21:51;5.30;;;3.35;;
69319;SDS011;56467;53.502;49.248;2022-08-03T08:24:17;5.30;;;3.50;;
69319;SDS011;56467;53.502;49.248;2022-08-03T08:26:42;5.63;;;3.47;;
69319;SDS011;56467;53.502;49.248;2022-08-03T08:29:08;5.40;;;3.30;;
69319;SDS011;56467;53.502;49.248;2022-08-03T08:31:34;5.88;;;3.53;;
69319;SDS011;56467;53.502;49.248;2022-08-03T08:34:00;4.80;;;3.30;;
69319;SDS011;56467;53.502;49.248;2022-08-03T08:36:33;4.97;;;3.33;;
69319;SDS011;56467;53.502;49.248;2022-08-03T08:38:59;4.55;;;3.35;;
69319;SDS011;56467;53.502;49.248;2022-08-03T08:41:25;4.40;;;3.22;;
69319;SDS011;56467;53.502;49.248;2022-08-03T08:43:52;4.93;;;3.13;;
69319;SDS011;56467;53.502;49.248;2022-08-03T08:46:18;4.82;;;3.00;;
69319;SDS011;56467;53.502;49.248;2022-08-03T08:48:45;4.75;;;3.45;;
69319;SDS011;56467;53.502;49.248;2022-08-03T08:51:13;4.55;;;3.40;;
69319;SDS011;56467;53.502;49.248;2022-08-03T08:53:42;5.03;;;3.17;;
69319;SDS011;56467;53.502;49.248;2022-08-03T08:56:12;6.43;;;3.53;;
69319;SDS011;56467;53.502;49.248;2022-08-03T08:58:46;5.97;;;3.20;;
69319;SDS011;56467;53.502;49.248;2022-08-03T09:01:18;5.05;;;3.17;;
69319;SDS011;56467;53.502;49.248;2022-08-03T09:03:45;5.65;;;3.10;;
69319;SDS011;56467;53.502;49.248;2022-08-03T09:06:11;4.50;;;3.00;;
69319;SDS011;56467;53.502;49.248;2022-08-03T09:08:37;4.35;;;3.10;;
69319;SDS011;56467;53.502;49.248;2022-08-03T09:11:03;4.40;;;3.05;;
69319;SDS011;56467;53.502;49.248;2022-08-03T09:13:29;5.50;;;3.38;;
69319;SDS011;56467;53.502;49.248;2022-08-03T09:16:14;5.47;;;3.08;;
69319;SDS011;56467;53.502;49.248;2022-08-03T09:18:46;4.93;;;3.17;;
69319;SDS011;56467;53.502;49.248;2022-08-03T09:21:23;5.93;;;3.42;;
69319;SDS011;56467;53.502;49.248;2022-08-03T09:23:52;5.15;;;3.33;;
69319;SDS011;56467;53.502;49.248;2022-08-03T09:26:20;6.22;;;3.17;;
69319;SDS011;56467;53.502;49.248;2022-08-03T09:28:54;6.93;;;3.50;;
69319;SDS011;56467;53.502;49.248;2022-08-03T09:31:38;8.10;;;3.80;;
69319;SDS011;56467;53.502;49.248;2022-08-03T09:34:08;8.10;;;3.53;;
69319;SDS011;56467;53.502;49.248;2022-08-03T09:36:42;7.60;;;4.07;;
69319;SDS011;56467;53.502;49.248;2022-08-03T09:39:11;9.07;;;3.78;;
69319;SDS011;56467;53.502;49.248;2022-08-03T09:41:45;8.98;;;3.70;;
69319;SDS011;56467;53.502;49.248;2022-08-03T09:44:34;9.57;;;4.05;;
69319;SDS011;56467;53.502;49.248;2022-08-03T09:47:01;9.38;;;4.10;;
69319;SDS011;56467;53.502;49.248;2022-08-03T09:49:28;7.95;;;3.97;;
69319;SDS011;56467;53.502;49.248;2022-08-03T09:51:54;8.88;;;4.13;;
69319;SDS011;56467;53.502;49.248;2022-08-03T09:54:26;11.45;;;4.20;;
69319;SDS011;56467;53.502;49.248;2022-08-03T09:56:56;9.98;;;4.40;;
69319;SDS011;56467;53.502;49.248;2022-08-03T09:59:23;10.30;;;4.10;;
69319;SDS011;56467;53.502;49.248;2022-08-03T10:01:50;8.95;;;4.13;;
69319;SDS011;56467;53.502;49.248;2022-08-03T10:04:16;10.30;;;4.28;;
69319;SDS011;56467;53.502;49.248;2022-08-03T10:06:43;10.00;;;4.53;;
69319;SDS011;56467;53.502;49.248;2022-08-03T10:11:41;10.50;;;4.00;;
69319;SDS011;56467;53.502;49.248;2022-08-03T10:14:09;9.52;;;4.50;;
69319;SDS011;56467;53.502;49.248;2022-08-03T10:16:43;10.35;;;4.28;;
69319;SDS011;56467;53.502;49.248;2022-08-03T10:19:09;12.20;;;4.22;;
69319;SDS011;56467;53.502;49.248;2022-08-03T10:21:37;11.43;;;4.45;;
69319;SDS011;56467;53.502;49.248;2022-08-03T10:24:06;13.35;;;4.55;;
69319;SDS011;56467;53.502;49.248;2022-08-03T10:26:35;10.63;;;4.10;;
69319;SDS011;56467;53.502;49.248;2022-08-03T10:29:04;9.98;;;4.28;;
69319;SDS011;56467;53.502;49.248;2022-08-03T10:31:39;10.52;;;4.68;;
69319;SDS011;56467;53.502;49.248;2022-08-03T10:34:14;13.65;;;5.15;;
69319;SDS011;56467;53.502;49.248;2022-08-03T10:36:43;11.52;;;4.38;;
69319;SDS011;56467;53.502;49.248;2022-08-03T10:39:09;10.32;;;4.35;;
69319;SDS011;56467;53.502;49.248;2022-08-03T10:41:39;11.52;;;4.70;;
69319;SDS011;56467;53.502;49.248;2022-08-03T10:44:11;12.55;;;4.50;;
69319;SDS011;56467;53.502;49.248;2022-08-03T10:46:48;9.75;;;4.50;;
69319;SDS011;56467;53.502;49.248;2022-08-03T10:49:16;12.23;;;4.35;;
69319;SDS011;56467;53.502;49.248;2022-08-03T10:51:43;11.48;;;4.20;;
69319;SDS011;56467;53.502;49.248;2022-08-03T11:00:23;10.75;;;4.38;;
69319;SDS011;56467;53.502;49.248;2022-08-03T11:05:44;10.98;;;4.63;;
69319;SDS011;56467;53.502;49.248;2022-08-03T11:08:23;10.63;;;4.40;;
69319;SDS011;56467;53.502;49.248;2022-08-03T11:10:55;10.60;;;4.50;;
69319;SDS011;56467;53.502;49.248;2022-08-03T11:13:23;9.40;;;4.22;;
69319;SDS011;56467;53.502;49.248;2022-08-03T11:15:51;12.82;;;4.85;;
69319;SDS011;56467;53.502;49.248;2022-08-03T11:18:18;9.73;;;4.10;;
69319;SDS011;56467;53.502;49.248;2022-08-03T11:23:17;10.20;;;4.40;;
69319;SDS011;56467;53.502;49.248;2022-08-03T11:28:36;8.47;;;3.70;;
69319;SDS011;56467;53.502;49.248;2022-08-03T11:34:07;9.88;;;4.30;;
69319;SDS011;56467;53.502;49.248;2022-08-03T11:39:40;9.60;;;4.20;;
69319;SDS011;56467;53.502;49.248;2022-08-03T11:44:47;9.00;;;4.07;;
69319;SDS011;56467;53.502;49.248;2022-08-03T11:47:18;8.93;;;4.07;;
69319;SDS011;56467;53.502;49.248;2022-08-03T11:49:49;9.00;;;4.03;;
69319;SDS011;56467;53.502;49.248;2022-08-03T11:52:17;9.30;;;4.03;;
69319;SDS011;56467;53.502;49.248;2022-08-03T11:54:43;10.13;;;4.13;;
69319;SDS011;56467;53.502;49.248;2022-08-03T11:57:09;8.48;;;3.95;;
69319;SDS011;56467;53.502;49.248;2022-08-03T11:59:36;8.68;;;3.90;;
69319;SDS011;56467;53.502;49.248;2022-08-03T12:02:09;8.30;;;4.05;;
69319;SDS011;56467;53.502;49.248;2022-08-03T12:04:52;7.78;;;3.85;;
69319;SDS011;56467;53.502;49.248;2022-08-03T12:07:26;8.90;;;3.83;;
69319;SDS011;56467;53.502;49.248;2022-08-03T12:10:09;9.60;;;4.10;;
69319;SDS011;56467;53.502;49.248;2022-08-03T12:12:37;9.05;;;3.78;;
69319;SDS011;56467;53.502;49.248;2022-08-03T12:15:04;8.55;;;3.85;;
69319;SDS011;56467;53.502;49.248;2022-08-03T12:17:33;8.23;;;3.60;;
69319;SDS011;56467;53.502;49.248;2022-08-03T12:20:05;9.02;;;4.00;;
69319;SDS011;56467;53.502;49.248;2022-08-03T12:22:33;8.32;;;4.03;;
69319;SDS011;56467;53.502;49.248;2022-08-03T12:25:01;8.73;;;4.20;;
69319;SDS011;56467;53.502;49.248;2022-08-03T12:27:31;9.27;;;4.65;;
69319;SDS011;56467;53.502;49.248;2022-08-03T12:29:57;8.07;;;4.13;;
69319;SDS011;56467;53.502;49.248;2022-08-03T12:32:28;11.00;;;4.70;;
69319;SDS011;56467;53.502;49.248;2022-08-03T12:34:55;8.95;;;4.28;;
69319;SDS011;56467;53.502;49.248;2022-08-03T12:37:25;9.55;;;4.10;;
69319;SDS011;56467;53.502;49.248;2022-08-03T12:39:54;8.50;;;4.60;;
69319;SDS011;56467;53.502;49.248;2022-08-03T12:42:34;11.60;;;4.50;;
69319;SDS011;56467;53.502;49.248;2022-08-03T12:45:19;8.18;;;4.03;;
69319;SDS011;56467;53.502;49.248;2022-08-03T12:47:50;10.55;;;4.97;;
69319;SDS011;56467;53.502;49.248;2022-08-03T12:50:24;7.85;;;4.50;;
69319;SDS011;56467;53.502;49.248;2022-08-03T12:52:57;8.75;;;4.85;;
69319;SDS011;56467;53.502;49.248;2022-08-03T12:55:24;9.52;;;4.72;;
69319;SDS011;56467;53.502;49.248;2022-08-03T12:57:58;9.23;;;4.43;;
69319;SDS011;56467;53.502;49.248;2022-08-03T13:00:25;9.32;;;4.50;;
69319;SDS011;56467;53.502;49.248;2022-08-03T13:03:01;8.73;;;3.97;;
69319;SDS011;56467;53.502;49.248;2022-08-03T13:05:30;8.65;;;4.15;;
69319;SDS011;56467;53.502;49.248;2022-08-03T13:07:56;9.27;;;4.43;;
69319;SDS011;56467;53.502;49.248;2022-08-03T13:10:29;9.77;;;4.70;;
69319;SDS011;56467;53.502;49.248;2022-08-03T13:12:56;10.20;;;4.45;;
69319;SDS011;56467;53.502;49.248;2022-08-03T13:15:24;7.57;;;4.15;;
69319;SDS011;56467;53.502;49.248;2022-08-03T13:17:52;9.75;;;4.43;;
69319;SDS011;56467;53.502;49.248;2022-08-03T13:20:19;9.80;;;4.43;;
69319;SDS011;56467;53.502;49.248;2022-08-03T13:22:46;8.57;;;4.22;;
69319;SDS011;56467;53.502;49.248;2022-08-03T13:25:12;8.05;;;4.00;;
69319;SDS011;56467;53.502;49.248;2022-08-03T13:27:38;8.02;;;4.22;;
69319;SDS011;56467;53.502;49.248;2022-08-03T13:30:05;8.70;;;4.20;;
69319;SDS011;56467;53.502;49.248;2022-08-03T13:32:33;8.30;;;3.92;;
69319;SDS011;56467;53.502;49.248;2022-08-03T13:34:59;8.55;;;4.28;;
69319;SDS011;56467;53.502;49.248;2022-08-03T13:37:26;8.93;;;4.20;;
69319;SDS011;56467;53.502;49.248;2022-08-03T13:39:53;8.20;;;3.95;;
69319;SDS011;56467;53.502;49.248;2022-08-03T13:42:19;7.90;;;4.25;;
69319;SDS011;56467;53.502;49.248;2022-08-03T13:44:45;8.65;;;3.80;;
69319;SDS011;56467;53.502;49.248;2022-08-03T13:47:11;7.28;;;3.72;;
69319;SDS011;56467;53.502;49.248;2022-08-03T13:49:36;7.70;;;3.88;;
69319;SDS011;56467;53.502;49.248;2022-08-03T13:52:02;8.25;;;3.75;;
69319;SDS011;56467;53.502;49.248;2022-08-03T13:54:28;9.25;;;4.20;;
69319;SDS011;56467;53.502;49.248;2022-08-03T13:56:54;8.65;;;3.80;;
69319;SDS011;56467;53.502;49.248;2022-08-03T13:59:21;7.20;;;3.80;;
69319;SDS011;56467;53.502;49.248;2022-08-03T14:01:48;8.40;;;3.58;;
69319;SDS011;56467;53.502;49.248;2022-08-03T14:04:16;7.28;;;3.67;;
69319;SDS011;56467;53.502;49.248;2022-08-03T14:06:42;8.35;;;3.78;;
69319;SDS011;56467;53.502;49.248;2022-08-03T14:09:11;6.63;;;3.45;;
69319;SDS011;56467;53.502;49.248;2022-08-03T14:11:42;7.95;;;3.70;;
69319;SDS011;56467;53.502;49.248;2022-08-03T14:14:09;6.28;;;3.83;;
69319;SDS011;56467;53.502;49.248;2022-08-03T14:16:35;5.65;;;3.33;;
69319;SDS011;56467;53.502;49.248;2022-08-03T14:19:02;7.18;;;3.45;;
69319;SDS011;56467;53.502;49.248;2022-08-03T14:21:28;6.07;;;3.17;;
69319;SDS011;56467;53.502;49.248;2022-08-03T14:23:55;7.85;;;3.42;;
69319;SDS011;56467;53.502;49.248;2022-08-03T14:26:21;7.88;;;3.88;;
69319;SDS011;56467;53.502;49.248;2022-08-03T14:28:47;7.32;;;3.80;;
69319;SDS011;56467;53.502;49.248;2022-08-03T14:31:13;8.30;;;4.03;;
69319;SDS011;56467;53.502;49.248;2022-08-03T14:33:38;8.02;;;4.10;;
69319;SDS011;56467;53.502;49.248;2022-08-03T14:36:04;7.45;;;3.85;;
69319;SDS011;56467;53.502;49.248;2022-08-03T14:38:30;9.93;;;4.78;;
69319;SDS011;56467;53.502;49.248;2022-08-03T14:40:56;9.20;;;4.50;;
69319;SDS011;56467;53.502;49.248;2022-08-03T14:43:22;9.40;;;4.60;;
69319;SDS011;56467;53.502;49.248;2022-08-03T14:45:49;7.70;;;3.88;;
69319;SDS011;56467;53.502;49.248;2022-08-03T14:48:19;7.55;;;4.05;;
69319;SDS011;56467;53.502;49.248;2022-08-03T14:50:46;9.02;;;4.03;;
69319;SDS011;56467;53.502;49.248;2022-08-03T14:53:11;7.85;;;4.22;;
69319;SDS011;56467;53.502;49.248;2022-08-03T14:55:38;7.95;;;4.13;;
69319;SDS011;56467;53.502;49.248;2022-08-03T14:58:04;7.15;;;3.67;;
69319;SDS011;56467;53.502;49.248;2022-08-03T15:00:33;6.63;;;3.47;;
69319;SDS011;56467;53.502;49.248;2022-08-03T15:03:00;8.15;;;3.67;;
69319;SDS011;56467;53.502;49.248;2022-08-03T15:05:26;7.72;;;4.10;;
69319;SDS011;56467;53.502;49.248;2022-08-03T15:07:52;9.15;;;3.95;;
69319;SDS011;56467;53.502;49.248;2022-08-03T15:10:18;7.53;;;3.60;;
69319;SDS011;56467;53.502;49.248;2022-08-03T15:12:44;5.95;;;3.30;;
69319;SDS011;56467;53.502;49.248;2022-08-03T15:15:10;7.10;;;3.42;;
69319;SDS011;56467;53.502;49.248;2022-08-03T15:17:36;6.68;;;3.38;;